Time;durP1;ratioP1;P1;durP2;ratioP2;P2;SDS_P1;SDS_P2;PMS_P1;PMS_P2;Temp;Humidity;BMP_temperature;BMP_pressure;BME280_temperature;BME280_humidity;BME280_pressure;Samples;Min_cycle;Max_cycle;Signal;HPM_P1;HPM_P2
2022/06/25 00:01:59;;;;;;;6.77;6.07;;;24.50;48.90;;;;;;5072076;28;20977;-45
2022/06/25 00:07:09;;;;;;;6.70;6.00;;;24.50;49.00;;;;;;5072075;28;20211;-45
2022/06/25 00:09:35;;;;;;;6.27;5.67;;;24.40;49.00;;;;;;5072219;28;20478;-45
2022/06/25 00:14:45;;;;;;;7.13;6.53;;;24.50;49.10;;;;;;5072365;28;20229;-46
2022/06/25 00:17:11;;;;;;;6.40;5.80;;;24.40;49.30;;;;;;5071735;28;21014;-46
2022/06/25 00:19:37;;;;;;;8.10;7.07;;;24.50;49.20;;;;;;5071991;28;20173;-46
2022/06/25 00:22:03;;;;;;;7.50;6.40;;;24.50;49.00;;;;;;5071904;28;20241;-45
2022/06/25 00:24:28;;;;;;;7.37;6.33;;;24.50;48.90;;;;;;5071914;28;20399;-45
2022/06/25 00:26:54;;;;;;;7.73;7.03;;;24.50;49.10;;;;;;5071652;28;20423;-47
2022/06/25 00:29:20;;;;;;;6.60;6.00;;;24.50;49.10;;;;;;5070914;28;20176;-47
2022/06/25 00:31:46;;;;;;;8.00;7.30;;;24.50;48.90;;;;;;5071854;28;20172;-47
2022/06/25 00:34:11;;;;;;;7.60;6.80;;;24.50;49.00;;;;;;5071906;28;20566;-47
2022/06/25 00:36:37;;;;;;;8.90;6.30;;;24.50;48.90;;;;;;5071593;28;20193;-47
2022/06/25 00:39:03;;;;;;;7.97;7.17;;;24.50;49.10;;;;;;5071759;28;20188;-47
2022/06/25 00:41:30;;;;;;;6.77;6.17;;;24.50;49.00;;;;;;5071813;28;20196;-46
2022/06/25 00:43:56;;;;;;;7.43;6.80;;;24.50;49.20;;;;;;5071772;28;20401;-46
2022/06/25 00:46:21;;;;;;;9.77;7.30;;;24.50;49.10;;;;;;5071491;28;20505;-45
2022/06/25 00:48:47;;;;;;;7.33;6.47;;;24.50;49.20;;;;;;5073033;28;20265;-47
2022/06/25 00:51:15;;;;;;;7.60;6.90;;;24.50;49.30;;;;;;5075688;28;20172;-47
2022/06/25 00:53:44;;;;;;;8.03;7.33;;;24.40;49.50;;;;;;5075582;28;20628;-47
2022/06/25 00:56:11;;;;;;;8.30;7.50;;;24.40;49.50;;;;;;5075281;28;20415;-46
2022/06/25 00:58:45;;;;;;;7.23;6.57;;;24.40;49.50;;;;;;5075723;28;20411;-47
2022/06/25 01:01:13;;;;;;;7.30;6.40;;;24.40;49.60;;;;;;5075386;28;20541;-47
2022/06/25 01:03:39;;;;;;;7.33;6.70;;;24.40;49.40;;;;;;5075469;28;20414;-47
2022/06/25 01:06:06;;;;;;;8.70;7.17;;;24.40;49.30;;;;;;5075095;28;20515;-48
2022/06/25 01:08:35;;;;;;;8.43;7.57;;;24.50;49.70;;;;;;5075352;28;20454;-47
2022/06/25 01:11:02;;;;;;;9.00;7.33;;;24.40;49.70;;;;;;5075290;28;20886;-47
2022/06/25 01:13:29;;;;;;;7.60;6.43;;;24.50;49.70;;;;;;5075246;28;20399;-45
2022/06/25 01:15:55;;;;;;;7.87;6.50;;;24.50;49.80;;;;;;5074845;28;20437;-47
2022/06/25 01:18:20;;;;;;;6.93;6.27;;;24.50;50.10;;;;;;5075254;28;20402;-46
2022/06/25 01:20:46;;;;;;;8.50;7.70;;;24.40;50.00;;;;;;5075048;28;20894;-46
2022/06/25 01:23:12;;;;;;;8.43;7.63;;;24.40;50.10;;;;;;5075041;28;20179;-45
2022/06/25 01:25:40;;;;;;;7.43;6.63;;;24.40;50.70;;;;;;5074701;28;20668;-46
2022/06/25 01:28:06;;;;;;;7.47;6.70;;;24.50;49.90;;;;;;5075001;28;20418;-48
2022/06/25 01:30:32;;;;;;;8.20;6.90;;;24.50;50.00;;;;;;5074927;28;20415;-45
2022/06/25 01:32:58;;;;;;;8.00;7.17;;;24.50;49.70;;;;;;5074864;28;20411;-46
2022/06/25 01:35:24;;;;;;;7.23;6.53;;;24.50;49.50;;;;;;5074685;28;20411;-48
2022/06/25 01:37:50;;;;;;;7.40;6.70;;;23.30;48.90;;;;;;5074652;28;20913;-47
2022/06/25 01:40:16;;;;;;;7.80;7.00;;;24.50;49.90;;;;;;5074803;28;20200;-47
2022/06/25 01:43:00;;;;;;;8.00;6.77;;;24.40;49.90;;;;;;5074815;28;20187;-47
2022/06/25 01:45:35;;;;;;;6.90;6.20;;;24.40;50.00;;;;;;5074541;28;20419;-46
2022/06/25 01:48:03;;;;;;;6.70;5.90;;;24.40;50.20;;;;;;5074578;28;20498;-46
2022/06/25 01:50:29;;;;;;;8.17;6.77;;;24.40;50.40;;;;;;5074601;28;20414;-46
2022/06/25 01:52:55;;;;;;;8.23;7.00;;;24.40;50.40;;;;;;5074725;28;20407;-46
2022/06/25 01:55:21;;;;;;;6.47;5.87;;;24.30;50.70;;;;;;5074449;28;20420;-46
2022/06/25 01:57:48;;;;;;;8.70;6.33;;;24.40;50.30;;;;;;5074291;28;20240;-45
2022/06/25 02:00:21;;;;;;;7.67;6.93;;;24.30;50.30;;;;;;5073709;28;20533;-43
2022/06/25 02:02:46;;;;;;;8.57;7.23;;;24.40;50.20;;;;;;5074617;28;20426;-44
2022/06/25 02:05:15;;;;;;;6.77;6.10;;;24.40;50.10;;;;;;5074229;28;21043;-44
2022/06/25 02:07:41;;;;;;;7.70;6.90;;;24.40;50.70;;;;;;5074308;28;20569;-44
2022/06/25 02:10:07;;;;;;;6.93;6.30;;;24.40;50.40;;;;;;5074229;28;20409;-43
2022/06/25 02:12:33;;;;;;;8.53;7.40;;;24.30;50.40;;;;;;5074158;28;20403;-44
2022/06/25 02:15:01;;;;;;;8.10;6.63;;;24.30;50.70;;;;;;5074058;28;20395;-45
2022/06/25 02:17:27;;;;;;;7.20;6.47;;;24.30;50.60;;;;;;5073723;28;20434;-44
2022/06/25 02:19:53;;;;;;;6.80;6.20;;;24.30;50.80;;;;;;5073942;28;20921;-45
2022/06/25 02:22:19;;;;;;;7.20;6.50;;;24.30;50.30;;;;;;5074020;28;20411;-46
2022/06/25 02:24:45;;;;;;;8.30;7.23;;;24.40;50.30;;;;;;5074084;28;20181;-44
2022/06/25 02:27:12;;;;;;;7.17;6.57;;;24.30;50.30;;;;;;5073537;28;20427;-46
2022/06/25 02:29:38;;;;;;;7.10;6.40;;;24.30;50.40;;;;;;5073936;28;20427;-45
2022/06/25 02:32:04;;;;;;;7.73;7.03;;;24.40;50.10;;;;;;5073722;28;20925;-45
2022/06/25 02:34:31;;;;;;;7.90;7.20;;;24.40;50.00;;;;;;5073993;28;20403;-43
2022/06/25 02:36:56;;;;;;;7.20;6.60;;;24.40;50.00;;;;;;5073642;28;20430;-44
2022/06/25 02:39:22;;;;;;;10.43;8.30;;;24.40;50.00;;;;;;5073704;28;20456;-45
2022/06/25 02:41:48;;;;;;;9.60;6.93;;;24.40;49.70;;;;;;5073466;28;20666;-45
2022/06/25 02:44:13;;;;;;;7.37;6.17;;;24.40;49.90;;;;;;5073688;28;20181;-45
2022/06/25 02:46:39;;;;;;;7.23;6.50;;;24.40;49.80;;;;;;5073372;28;20579;-43
2022/06/25 02:49:05;;;;;;;9.03;7.13;;;24.40;49.70;;;;;;5073401;28;20639;-44
2022/06/25 02:51:31;;;;;;;7.67;6.90;;;24.40;49.80;;;;;;5073713;28;20176;-44
2022/06/25 02:53:57;;;;;;;7.30;6.60;;;24.40;49.90;;;;;;5073422;28;20543;-44
2022/06/25 02:59:08;;;;;;;7.70;6.30;;;24.40;49.80;;;;;;5073566;28;20214;-44
2022/06/25 03:01:34;;;;;;;8.53;7.73;;;24.40;49.90;;;;;;5073364;28;20446;-44
2022/06/25 03:04:00;;;;;;;7.40;6.70;;;24.40;50.20;;;;;;5073111;28;20407;-44
2022/06/25 03:06:26;;;;;;;7.47;6.73;;;24.40;50.20;;;;;;5072682;28;20461;-44
2022/06/25 03:08:52;;;;;;;7.10;6.17;;;24.40;50.00;;;;;;5073197;28;20545;-45
2022/06/25 03:11:18;;;;;;;8.13;7.33;;;24.40;49.90;;;;;;5072415;28;20411;-45
2022/06/25 03:13:44;;;;;;;7.60;6.80;;;24.40;49.90;;;;;;5073126;28;20834;-45
2022/06/25 03:16:10;;;;;;;6.80;6.10;;;24.40;49.80;;;;;;5072633;28;21003;-46
2022/06/25 03:18:37;;;;;;;7.00;6.30;;;24.40;49.80;;;;;;5073071;28;20184;-46
2022/06/25 03:21:03;;;;;;;7.83;6.90;;;24.40;50.00;;;;;;5072662;28;20458;-45
2022/06/25 03:23:30;;;;;;;9.90;6.20;;;24.40;50.00;;;;;;5072932;28;20409;-45
2022/06/25 03:25:56;;;;;;;7.37;6.67;;;24.40;49.80;;;;;;5072651;28;20437;-44
2022/06/25 03:28:21;;;;;;;9.43;6.10;;;24.40;49.70;;;;;;5072626;28;20406;-44
2022/06/25 03:30:47;;;;;;;8.10;6.33;;;24.40;49.80;;;;;;5072621;28;20181;-44
2022/06/25 03:33:13;;;;;;;7.73;6.57;;;24.40;49.80;;;;;;5072647;28;20176;-44
2022/06/25 03:35:40;;;;;;;7.37;6.63;;;24.40;50.10;;;;;;5072206;28;20231;-44
2022/06/25 03:38:06;;;;;;;8.20;7.10;;;24.30;50.10;;;;;;5072474;28;20410;-44
2022/06/25 03:40:32;;;;;;;6.90;6.20;;;24.40;50.00;;;;;;5072628;28;20883;-44
2022/06/25 03:42:58;;;;;;;6.57;5.97;;;24.40;50.00;;;;;;5072658;28;20494;-47
2022/06/25 03:45:24;;;;;;;8.70;5.97;;;24.40;49.80;;;;;;5072470;28;20177;-47
2022/06/25 03:47:50;;;;;;;8.23;5.10;;;24.40;49.80;;;;;;5072253;28;20406;-47
2022/06/25 03:50:21;;;;;;;6.10;5.50;;;24.50;49.60;;;;;;5072354;28;20415;-47
2022/06/25 03:52:47;;;;;;;6.40;4.77;;;24.50;49.70;;;;;;5072476;28;20917;-47
2022/06/25 03:55:14;;;;;;;5.87;5.30;;;24.50;49.80;;;;;;5072156;28;20414;-47
2022/06/25 03:57:40;;;;;;;6.93;4.70;;;24.50;49.60;;;;;;5071950;28;20399;-47
2022/06/25 04:00:07;;;;;;;7.10;5.47;;;24.50;49.80;;;;;;5072105;28;20407;-46
2022/06/25 04:02:33;;;;;;;5.23;4.53;;;24.50;49.80;;;;;;5072203;28;20484;-46
2022/06/25 04:05:00;;;;;;;6.27;4.87;;;24.60;50.20;;;;;;5072160;28;20410;-46
2022/06/25 04:07:26;;;;;;;6.67;4.73;;;24.60;50.30;;;;;;5071725;28;20958;-46
2022/06/25 04:09:52;;;;;;;5.43;4.93;;;24.60;50.20;;;;;;5072136;28;20410;-47
2022/06/25 04:12:17;;;;;;;9.13;5.30;;;24.60;50.20;;;;;;5071996;28;20469;-47
2022/06/25 04:14:43;;;;;;;5.33;4.50;;;24.60;49.90;;;;;;5072233;28;20810;-46
2022/06/25 04:17:10;;;;;;;6.67;4.80;;;24.60;50.20;;;;;;5071773;28;20196;-45
2022/06/25 04:19:40;;;;;;;5.20;4.70;;;24.60;50.20;;;;;;5071990;28;20641;-46
2022/06/25 04:22:10;;;;;;;4.80;4.30;;;24.70;50.00;;;;;;5072677;28;20540;-46
2022/06/25 04:24:37;;;;;;;5.87;4.73;;;24.70;50.00;;;;;;5078661;28;20383;-45
2022/06/25 04:27:03;;;;;;;6.27;5.03;;;24.70;50.00;;;;;;5078320;28;20422;-46
2022/06/25 04:29:30;;;;;;;5.67;4.90;;;24.70;50.00;;;;;;5078886;28;20430;-47
2022/06/25 04:31:57;;;;;;;5.30;4.37;;;24.70;50.00;;;;;;5078526;28;20917;-47
2022/06/25 04:34:24;;;;;;;5.00;4.00;;;24.70;50.20;;;;;;5078506;28;20413;-45
2022/06/25 04:36:50;;;;;;;5.60;4.10;;;24.70;50.20;;;;;;5078151;28;20521;-46
2022/06/25 04:39:16;;;;;;;5.00;4.10;;;24.70;50.20;;;;;;5078497;28;20415;-46
2022/06/25 04:41:43;;;;;;;5.97;4.70;;;24.70;50.00;;;;;;5078340;28;20449;-47
2022/06/25 04:44:09;;;;;;;3.83;2.90;;;24.80;50.10;;;;;;5078470;28;20631;-46
2022/06/25 04:46:35;;;;;;;5.37;4.00;;;24.80;50.10;;;;;;5078106;28;20434;-47
2022/06/25 04:49:00;;;;;;;5.60;3.40;;;24.80;50.30;;;;;;5078590;28;20184;-46
2022/06/25 04:51:28;;;;;;;4.10;2.87;;;24.80;50.10;;;;;;5078592;28;20501;-47
2022/06/25 04:53:57;;;;;;;4.87;3.70;;;24.80;50.10;;;;;;5078316;28;20180;-46
2022/06/25 04:56:28;;;;;;;4.33;3.20;;;24.80;50.00;;;;;;5078129;28;20488;-47
2022/06/25 04:58:55;;;;;;;5.07;3.00;;;24.80;50.00;;;;;;5078321;28;20407;-46
2022/06/25 05:01:21;;;;;;;3.23;2.53;;;24.80;49.90;;;;;;5078229;28;20449;-48
2022/06/25 05:03:47;;;;;;;3.63;2.97;;;24.80;50.00;;;;;;5078221;28;20403;-47
2022/06/25 05:06:13;;;;;;;5.33;3.00;;;24.80;50.00;;;;;;5077896;28;20497;-47
2022/06/25 05:08:40;;;;;;;3.93;3.20;;;24.80;50.00;;;;;;5078278;28;20882;-47
2022/06/25 05:11:06;;;;;;;3.13;2.37;;;24.70;50.70;;;;;;5085077;22;20567;-45
2022/06/25 05:13:32;;;;;;;4.67;2.90;;;24.80;49.90;;;;;;5069738;28;20894;-45
2022/06/25 05:15:58;;;;;;;9.80;3.20;;;24.80;49.70;;;;;;5078011;28;20486;-45
2022/06/25 05:18:23;;;;;;;3.57;3.23;;;24.80;49.60;;;;;;5078235;28;20981;-45
2022/06/25 05:20:49;;;;;;;4.67;2.70;;;24.80;49.50;;;;;;5077950;28;20703;-45
2022/06/25 05:23:15;;;;;;;3.30;2.60;;;24.80;49.50;;;;;;5078177;28;20260;-45
2022/06/25 05:25:41;;;;;;;3.43;3.13;;;24.80;49.40;;;;;;5077776;28;20168;-44
2022/06/25 05:28:08;;;;;;;7.87;2.93;;;24.90;49.40;;;;;;5078345;28;20177;-44
2022/06/25 05:30:34;;;;;;;3.90;2.53;;;24.80;50.10;;;;;;5077959;28;20450;-43
2022/06/25 05:33:00;;;;;;;7.20;3.70;;;24.90;49.60;;;;;;5078308;28;20479;-44
2022/06/25 05:35:26;;;;;;;3.63;2.40;;;24.90;50.00;;;;;;5074752;28;20906;-43
2022/06/25 05:37:52;;;;;;;3.90;2.50;;;24.90;49.90;;;;;;5074874;28;20407;-43
2022/06/25 05:40:18;;;;;;;4.73;3.00;;;24.90;50.00;;;;;;5074570;28;20922;-44
2022/06/25 05:42:44;;;;;;;8.40;2.83;;;24.80;49.70;;;;;;5074715;28;20476;-43
2022/06/25 05:45:10;;;;;;;4.80;2.30;;;24.80;49.90;;;;;;5074707;28;20399;-44
2022/06/25 05:47:36;;;;;;;4.70;3.00;;;24.80;50.30;;;;;;5074779;28;20414;-44
2022/06/25 05:50:02;;;;;;;4.90;3.80;;;24.80;50.30;;;;;;5074518;28;20160;-43
2022/06/25 05:52:28;;;;;;;3.70;2.47;;;24.80;50.40;;;;;;5074433;28;20933;-43
2022/06/25 05:54:54;;;;;;;4.80;2.60;;;24.80;50.30;;;;;;5074452;28;20395;-45
2022/06/25 05:57:20;;;;;;;3.50;2.87;;;24.80;50.40;;;;;;5074443;28;20171;-44
2022/06/25 05:59:46;;;;;;;6.10;3.03;;;24.80;50.30;;;;;;5074479;28;20476;-44
2022/06/25 06:02:12;;;;;;;5.10;3.10;;;24.80;50.40;;;;;;5074226;28;20764;-44
2022/06/25 06:04:37;;;;;;;3.77;3.13;;;24.80;50.40;;;;;;5074544;28;20557;-45
2022/06/25 06:07:04;;;;;;;3.47;3.03;;;24.80;50.20;;;;;;5074353;28;20399;-45
2022/06/25 06:09:32;;;;;;;4.57;3.20;;;24.90;50.30;;;;;;5074160;28;20169;-44
2022/06/25 06:11:58;;;;;;;2.90;2.37;;;24.90;50.20;;;;;;5074030;28;20451;-44
2022/06/25 06:14:24;;;;;;;3.27;2.83;;;25.00;50.40;;;;;;5074362;28;20758;-44
2022/06/25 06:16:50;;;;;;;5.00;3.00;;;25.00;50.00;;;;;;5073845;28;20403;-44
2022/06/25 06:19:16;;;;;;;5.90;3.07;;;25.00;50.00;;;;;;5074028;28;20421;-44
2022/06/25 06:21:42;;;;;;;4.40;2.30;;;25.00;50.00;;;;;;5074025;28;20532;-44
2022/06/25 06:24:08;;;;;;;4.33;2.80;;;25.00;50.00;;;;;;5073890;28;20425;-44
2022/06/25 06:26:34;;;;;;;3.93;2.73;;;25.00;49.60;;;;;;5073949;28;20616;-44
2022/06/25 06:29:01;;;;;;;4.87;3.00;;;25.10;49.60;;;;;;5073803;28;20260;-43
2022/06/25 06:31:27;;;;;;;4.43;2.90;;;25.10;49.60;;;;;;5073948;28;20430;-44
2022/06/25 06:33:53;;;;;;;4.20;3.00;;;25.10;49.30;;;;;;5073943;28;20778;-44
2022/06/25 06:36:19;;;;;;;3.73;2.70;;;25.10;49.10;;;;;;5073494;28;20826;-44
2022/06/25 06:38:45;;;;;;;2.60;2.40;;;25.10;49.30;;;;;;5073546;28;20438;-44
2022/06/25 06:41:12;;;;;;;3.57;2.50;;;25.10;49.30;;;;;;5073470;28;20275;-45
2022/06/25 06:43:39;;;;;;;4.43;3.07;;;25.10;49.30;;;;;;5073684;28;20941;-46
2022/06/25 06:46:05;;;;;;;5.50;2.07;;;25.20;49.30;;;;;;5072088;28;20399;-45
2022/06/25 06:48:31;;;;;;;3.40;2.70;;;25.30;49.40;;;;;;5073432;28;20403;-45
2022/06/25 06:50:57;;;;;;;5.53;3.03;;;25.30;49.20;;;;;;5073290;28;20430;-44
2022/06/25 06:53:22;;;;;;;4.20;3.30;;;25.40;49.30;;;;;;5073568;28;20173;-45
2022/06/25 06:55:48;;;;;;;6.30;2.70;;;25.40;49.10;;;;;;5073091;28;20165;-46
2022/06/25 06:58:14;;;;;;;4.30;2.93;;;25.50;48.60;;;;;;5073296;28;20181;-46
2022/06/25 07:00:40;;;;;;;3.93;2.40;;;25.50;48.80;;;;;;5073045;28;20204;-46
2022/06/25 07:03:06;;;;;;;3.87;2.83;;;25.60;48.70;;;;;;5073201;28;20161;-45
2022/06/25 07:05:31;;;;;;;3.63;2.80;;;25.60;48.60;;;;;;5072992;28;20628;-45
2022/06/25 07:07:57;;;;;;;5.00;2.80;;;25.70;48.30;;;;;;5072914;28;20482;-45
2022/06/25 07:10:23;;;;;;;5.00;2.50;;;25.70;48.30;;;;;;5072780;28;20900;-44
2022/06/25 07:12:49;;;;;;;5.80;2.43;;;25.70;48.20;;;;;;5072945;28;20403;-45
2022/06/25 07:15:15;;;;;;;3.03;2.30;;;25.80;48.10;;;;;;5072793;28;20185;-45
2022/06/25 07:17:41;;;;;;;4.40;2.20;;;25.80;48.00;;;;;;5072905;28;20173;-45
2022/06/25 07:20:07;;;;;;;4.57;2.50;;;25.90;48.00;;;;;;5072794;28;20413;-45
2022/06/25 07:22:33;;;;;;;4.00;2.60;;;25.90;47.70;;;;;;5072575;28;20429;-47
2022/06/25 07:24:59;;;;;;;2.60;2.17;;;25.90;47.50;;;;;;5072645;28;20890;-45
2022/06/25 07:27:25;;;;;;;2.80;2.47;;;26.00;48.40;;;;;;5072513;28;20410;-48
2022/06/25 07:29:51;;;;;;;3.27;2.30;;;26.10;48.30;;;;;;5072687;28;20165;-47
2022/06/25 07:32:17;;;;;;;5.73;2.77;;;26.20;47.60;;;;;;5072456;28;20990;-46
2022/06/25 07:34:43;;;;;;;3.60;2.63;;;26.20;47.70;;;;;;5072571;28;20247;-46
2022/06/25 07:37:08;;;;;;;3.97;3.03;;;26.30;48.20;;;;;;5072441;28;20430;-47
2022/06/25 07:39:34;;;;;;;3.87;3.00;;;26.40;47.20;;;;;;5072598;28;20176;-47
2022/06/25 07:42:00;;;;;;;4.13;3.00;;;26.40;47.20;;;;;;5072349;28;20203;-48
2022/06/25 07:44:26;;;;;;;4.00;2.80;;;26.40;47.20;;;;;;5072360;28;20399;-48
2022/06/25 07:46:52;;;;;;;3.03;2.57;;;26.50;47.00;;;;;;5072173;28;20407;-47
2022/06/25 07:49:18;;;;;;;4.13;3.30;;;26.50;46.70;;;;;;5072308;28;20403;-47
2022/06/25 07:52:01;;;;;;;4.00;3.37;;;26.60;47.10;;;;;;5072191;28;20195;-47
2022/06/25 07:54:29;;;;;;;3.33;2.60;;;26.60;46.20;;;;;;5072232;28;20661;-46
2022/06/25 07:56:56;;;;;;;4.47;2.43;;;26.70;46.30;;;;;;5071646;28;20414;-45
2022/06/25 07:59:22;;;;;;;5.23;2.87;;;26.70;46.00;;;;;;5072208;28;20434;-47
2022/06/25 08:01:49;;;;;;;3.13;2.63;;;26.70;45.80;;;;;;5072069;28;20482;-47
2022/06/25 08:04:14;;;;;;;3.27;2.30;;;26.70;46.20;;;;;;5072486;28;20399;-47
2022/06/25 08:06:41;;;;;;;4.80;2.80;;;26.80;46.20;;;;;;5071890;28;20459;-47
2022/06/25 08:09:10;;;;;;;2.97;2.10;;;26.90;46.30;;;;;;5072069;28;20949;-47
2022/06/25 08:11:37;;;;;;;4.37;3.27;;;27.00;46.60;;;;;;5071867;28;21020;-48
2022/06/25 08:14:03;;;;;;;3.20;2.50;;;27.00;46.30;;;;;;5072063;28;20410;-48
2022/06/25 08:16:29;;;;;;;3.70;3.20;;;27.10;46.30;;;;;;5071817;28;20405;-48
2022/06/25 08:18:56;;;;;;;4.93;3.40;;;27.20;46.30;;;;;;5071918;28;20974;-48
2022/06/25 08:21:21;;;;;;;3.97;2.37;;;27.20;45.30;;;;;;5071851;28;20200;-43
2022/06/25 08:23:47;;;;;;;4.60;3.20;;;27.20;45.20;;;;;;5071902;28;20406;-44
2022/06/25 08:26:15;;;;;;;3.93;2.53;;;27.20;44.80;;;;;;5071992;28;20398;-45
2022/06/25 08:28:41;;;;;;;3.00;2.60;;;27.20;44.90;;;;;;5071892;28;20454;-44
2022/06/25 08:31:07;;;;;;;3.17;2.17;;;27.20;44.80;;;;;;5071795;28;20430;-45
2022/06/25 08:33:33;;;;;;;4.70;2.60;;;27.20;44.60;;;;;;5071897;28;20395;-45
2022/06/25 08:35:59;;;;;;;2.80;2.17;;;27.10;44.90;;;;;;5071580;28;20230;-44
2022/06/25 08:38:25;;;;;;;4.10;2.40;;;27.20;45.10;;;;;;5072066;28;20180;-46
2022/06/25 08:40:56;;;;;;;4.43;2.60;;;27.20;44.30;;;;;;5071598;28;20563;-45
2022/06/25 08:43:22;;;;;;;4.20;3.77;;;27.20;45.00;;;;;;5072093;28;20161;-45
2022/06/25 08:45:48;;;;;;;3.20;2.60;;;27.10;44.90;;;;;;5071823;28;20460;-45
2022/06/25 08:48:23;;;;;;;3.63;2.67;;;27.10;45.00;;;;;;5071779;28;20169;-45
2022/06/25 08:50:51;;;;;;;3.20;2.83;;;27.00;44.70;;;;;;5071857;28;20475;-45
2022/06/25 08:53:18;;;;;;;3.77;2.80;;;27.00;44.40;;;;;;5071711;28;20435;-45
2022/06/25 08:55:45;;;;;;;5.23;3.27;;;26.90;43.70;;;;;;5071508;28;20407;-44
2022/06/25 08:58:12;;;;;;;4.63;3.33;;;26.90;44.20;;;;;;5071602;28;20890;-45
2022/06/25 09:00:41;;;;;;;3.27;2.70;;;26.90;44.20;;;;;;5071505;28;20799;-46
2022/06/25 09:03:08;;;;;;;3.33;2.50;;;26.90;44.50;;;;;;5071891;28;20395;-44
2022/06/25 09:05:43;;;;;;;3.30;2.23;;;26.80;44.20;;;;;;5071350;28;20894;-47
2022/06/25 09:08:14;;;;;;;4.10;2.60;;;26.80;44.70;;;;;;5071587;28;20898;-47
2022/06/25 09:10:43;;;;;;;3.33;2.60;;;26.80;44.70;;;;;;5073984;28;20558;-47
2022/06/25 09:13:10;;;;;;;3.80;2.67;;;26.80;44.40;;;;;;5075278;28;20424;-46
2022/06/25 09:15:42;;;;;;;2.83;2.60;;;26.70;44.60;;;;;;5075001;28;20452;-47
2022/06/25 09:18:13;;;;;;;4.20;2.47;;;26.80;44.80;;;;;;5075146;28;20492;-48
2022/06/25 09:21:05;;;;;;;3.17;2.20;;;26.70;44.50;;;;;;5075000;28;20499;-47
2022/06/25 09:23:34;;;;;;;2.80;2.20;;;26.70;44.40;;;;;;5075403;28;20751;-47
2022/06/25 09:26:03;;;;;;;3.23;2.63;;;26.70;44.50;;;;;;5075122;28;20469;-47
2022/06/25 09:28:40;;;;;;;3.57;2.70;;;26.70;44.80;;;;;;5075032;28;20460;-47
2022/06/25 09:31:07;;;;;;;4.90;2.83;;;26.70;44.80;;;;;;5075181;28;20461;-47
2022/06/25 09:33:35;;;;;;;3.23;2.93;;;26.80;45.00;;;;;;5074913;28;20814;-48
2022/06/25 09:36:01;;;;;;;4.47;3.17;;;26.80;45.10;;;;;;5074657;28;20891;-46
2022/06/25 09:38:28;;;;;;;3.90;2.70;;;26.80;44.50;;;;;;5074811;28;20410;-44
2022/06/25 09:40:57;;;;;;;3.30;3.00;;;26.80;44.60;;;;;;5074651;28;20446;-44
2022/06/25 09:43:25;;;;;;;3.80;2.73;;;26.80;44.80;;;;;;5074666;28;20755;-46
2022/06/25 09:45:53;;;;;;;2.60;2.37;;;26.90;44.70;;;;;;5074688;28;20403;-45
2022/06/25 09:48:28;;;;;;;3.67;3.30;;;26.90;44.50;;;;;;5074622;28;20399;-45
2022/06/25 09:51:19;;;;;;;4.17;2.50;;;27.00;45.70;;;;;;5074633;28;20544;-46
2022/06/25 09:53:55;;;;;;;3.40;2.90;;;27.00;45.30;;;;;;5074809;28;20403;-46
2022/06/25 09:56:25;;;;;;;3.40;3.10;;;27.00;45.50;;;;;;5074322;28;20452;-45
2022/06/25 09:58:53;;;;;;;2.50;2.07;;;27.10;45.50;;;;;;5074468;28;20756;-44
2022/06/25 10:01:23;;;;;;;5.90;2.50;;;27.10;45.20;;;;;;5074361;28;20470;-46
2022/06/25 10:03:49;;;;;;;3.53;3.20;;;27.20;45.30;;;;;;5074227;28;20403;-45
2022/06/25 10:06:23;;;;;;;3.13;2.70;;;27.20;44.40;;;;;;5074273;28;20399;-45
2022/06/25 10:08:54;;;;;;;3.13;2.80;;;27.20;44.70;;;;;;5074217;28;20399;-46
2022/06/25 10:11:27;;;;;;;4.07;2.87;;;27.20;45.00;;;;;;5073950;28;21000;-46
2022/06/25 10:13:53;;;;;;;3.77;2.83;;;27.30;44.50;;;;;;5074214;28;20407;-45
2022/06/25 10:16:21;;;;;;;5.53;3.97;;;27.30;44.50;;;;;;5073899;28;20411;-46
2022/06/25 10:18:48;;;;;;;3.57;2.67;;;27.30;44.30;;;;;;5073963;28;20782;-45
2022/06/25 10:21:14;;;;;;;4.27;3.17;;;27.40;44.70;;;;;;5073516;28;20454;-45
2022/06/25 10:23:41;;;;;;;4.87;3.47;;;27.50;44.20;;;;;;5074025;28;20410;-46
2022/06/25 10:26:08;;;;;;;4.10;2.77;;;27.50;44.00;;;;;;5073716;28;20399;-45
2022/06/25 10:28:37;;;;;;;3.43;3.13;;;27.50;44.30;;;;;;5073895;28;20398;-45
2022/06/25 10:31:10;;;;;;;3.23;2.93;;;27.60;44.20;;;;;;5073713;28;21022;-46
2022/06/25 10:33:57;;;;;;;3.53;3.10;;;27.60;43.90;;;;;;5073658;28;20429;-46
2022/06/25 10:36:49;;;;;;;4.20;3.60;;;27.60;44.10;;;;;;5073127;28;20885;-46
2022/06/25 10:39:27;;;;;;;3.47;2.87;;;27.70;43.10;;;;;;5073921;28;20390;-45
2022/06/25 10:45:15;;;;;;;3.90;3.47;;;27.70;43.40;;;;;;5073542;28;20448;-45
2022/06/25 10:47:51;;;;;;;3.73;3.33;;;27.70;43.40;;;;;;5051829;28;20441;-45
2022/06/25 10:50:20;;;;;;;3.80;3.40;;;27.80;43.20;;;;;;5073400;28;20387;-46
2022/06/25 10:53:07;;;;;;;4.30;3.37;;;27.80;43.20;;;;;;5073351;28;20459;-45
2022/06/25 10:55:47;;;;;;;6.13;4.40;;;27.80;43.00;;;;;;5073232;28;20395;-49
2022/06/25 10:58:18;;;;;;;4.73;3.57;;;27.90;43.00;;;;;;5073178;28;20413;-45
2022/06/25 11:00:48;;;;;;;4.53;4.10;;;27.90;43.00;;;;;;5073052;28;20552;-46
2022/06/25 11:03:14;;;;;;;5.33;4.03;;;28.00;43.10;;;;;;5073009;28;20407;-45
2022/06/25 11:05:41;;;;;;;5.10;4.23;;;28.00;43.80;;;;;;5072893;28;20407;-45
2022/06/25 11:08:07;;;;;;;5.73;4.00;;;28.20;43.80;;;;;;5073320;28;20412;-45
2022/06/25 11:10:38;;;;;;;4.23;3.70;;;28.20;42.40;;;;;;5072807;28;20786;-45
2022/06/25 11:13:04;;;;;;;4.53;4.13;;;28.30;43.30;;;;;;5072994;28;20405;-44
2022/06/25 11:15:42;;;;;;;5.23;3.80;;;28.40;42.70;;;;;;5072804;28;20411;-47
2022/06/25 11:18:12;;;;;;;4.80;4.23;;;28.50;42.60;;;;;;5072801;28;20410;-45
2022/06/25 11:20:39;;;;;;;4.83;4.43;;;28.50;42.10;;;;;;5073131;28;20962;-45
2022/06/25 11:23:09;;;;;;;4.73;4.33;;;28.50;42.00;;;;;;5072728;28;20402;-45
2022/06/25 11:28:53;;;;;;;4.73;4.20;;;28.60;42.10;;;;;;5072758;28;20394;-46
2022/06/25 11:31:24;;;;;;;4.83;4.37;;;28.60;42.50;;;;;;5072515;28;20426;-46
2022/06/25 11:33:52;;;;;;;4.03;3.73;;;28.60;42.40;;;;;;5071971;28;20402;-45
2022/06/25 11:36:20;;;;;;;4.10;3.80;;;28.60;42.10;;;;;;5072237;28;20411;-46
2022/06/25 11:38:54;;;;;;;5.27;4.77;;;28.60;41.80;;;;;;5072466;28;20411;-45
2022/06/25 11:41:27;;;;;;;5.00;4.13;;;28.70;42.60;;;;;;5072579;28;20462;-46
2022/06/25 11:44:05;;;;;;;4.67;4.17;;;28.80;41.90;;;;;;5072464;28;20442;-45
2022/06/25 11:46:35;;;;;;;4.57;4.17;;;28.90;41.90;;;;;;5072262;28;20406;-46
2022/06/25 11:49:05;;;;;;;5.13;4.67;;;29.00;42.50;;;;;;5072259;28;20892;-46
2022/06/25 11:51:32;;;;;;;4.57;3.80;;;29.10;42.00;;;;;;5072289;28;20833;-46
2022/06/25 11:54:04;;;;;;;5.30;4.80;;;29.10;41.90;;;;;;5072290;28;20409;-46
2022/06/25 11:56:30;;;;;;;5.50;4.40;;;29.20;41.90;;;;;;5072102;28;20449;-45
2022/06/25 11:58:56;;;;;;;4.90;4.40;;;29.30;41.50;;;;;;5072435;28;20442;-46
2022/06/25 12:01:28;;;;;;;4.60;4.20;;;29.40;41.60;;;;;;5072295;28;20539;-45
2022/06/25 12:03:55;;;;;;;6.67;5.30;;;29.50;41.90;;;;;;5072335;28;20182;-45
2022/06/25 12:06:22;;;;;;;5.50;5.00;;;29.50;40.70;;;;;;5072137;28;20435;-46
2022/06/25 12:08:49;;;;;;;6.37;4.30;;;29.50;40.90;;;;;;5072338;28;20426;-45
2022/06/25 12:11:15;;;;;;;6.13;4.50;;;29.50;41.00;;;;;;5071930;28;20470;-45
2022/06/25 12:13:41;;;;;;;4.43;3.33;;;29.50;41.10;;;;;;5072070;28;20816;-45
2022/06/25 12:16:07;;;;;;;6.43;4.27;;;29.60;40.90;;;;;;5071809;28;20418;-44
2022/06/25 12:18:41;;;;;;;8.00;3.80;;;29.60;41.30;;;;;;5071993;28;20394;-44
2022/06/25 12:21:09;;;;;;;5.27;4.80;;;29.70;41.10;;;;;;5071861;28;20700;-44
2022/06/25 12:23:55;;;;;;;4.70;4.03;;;29.70;40.50;;;;;;5072178;28;20406;-45
2022/06/25 12:26:32;;;;;;;4.07;3.67;;;29.90;40.70;;;;;;5071677;28;20403;-45
2022/06/25 12:29:25;;;;;;;4.43;4.03;;;30.00;41.20;;;;;;5072081;28;20403;-45
2022/06/25 12:31:52;;;;;;;4.80;4.17;;;30.20;41.40;;;;;;5069858;28;20438;-44
2022/06/25 12:34:18;;;;;;;4.40;4.00;;;30.20;40.80;;;;;;5071717;28;20442;-44
2022/06/25 12:36:43;;;;;;;6.03;4.50;;;30.20;39.60;;;;;;5071648;28;20430;-44
2022/06/25 12:39:29;;;;;;;4.00;3.60;;;29.10;39.70;;;;;;5072071;28;20260;-45
2022/06/25 12:41:55;;;;;;;4.50;4.10;;;30.20;39.60;;;;;;5071661;28;20695;-45
2022/06/25 12:44:21;;;;;;;5.37;4.47;;;30.10;39.80;;;;;;5073966;28;20407;-45
2022/06/25 12:47:10;;;;;;;4.17;3.77;;;30.00;40.40;;;;;;5075421;28;20175;-46
2022/06/25 12:49:56;;;;;;;4.40;4.00;;;30.00;39.90;;;;;;5076048;28;20418;-44
2022/06/25 12:52:36;;;;;;;4.60;4.20;;;29.90;39.50;;;;;;5075605;28;20465;-47
2022/06/25 12:55:03;;;;;;;4.47;4.07;;;29.90;40.10;;;;;;5075669;28;20894;-48
2022/06/25 12:57:32;;;;;;;5.00;4.27;;;29.90;39.80;;;;;;5075534;28;20778;-47
2022/06/25 13:00:01;;;;;;;4.87;4.47;;;29.80;39.90;;;;;;5075599;28;20433;-48
2022/06/25 13:02:27;;;;;;;4.30;3.90;;;29.80;39.90;;;;;;5075294;28;20462;-47
2022/06/25 13:04:53;;;;;;;4.63;4.23;;;29.80;39.30;;;;;;5075406;28;20478;-46
2022/06/25 13:07:19;;;;;;;5.57;3.90;;;29.80;39.30;;;;;;5075158;28;20450;-46